Terminal Aerodrome Forecast
Issued by NWS Grand Forks, ND

Home | Current Version | Previous Version | Graphics & Text | Print | Product List | Glossary On
Versions: 1 2 3 4 5 6 7 8 9 10 11 12 13 14 15 16 17 18
188
FTUS43 KFGF 161126
TAFGFK
TAF
KGFK 161126Z 1612/1712 12010KT P6SM OVC011
     FM161600 13016G24KT P6SM OVC008
     FM170100 15021G29KT P6SM OVC008
     FM170700 17012KT P6SM BKN015=

USA.gov is the U.S. government's official web portal to all federal, state and local government web resources and services.